LPPTLPCS

Guest
Details From LPPT - Lisbon Humberto Delgado
To LPCS - CASCAIS
Flight Number -
Tags generated
Created
Modified
Stats Distance 11 nm / 20 km
Max Altitude 0 ft / 0 m
Waypoints 2
Social Downloads 0
Likes 0
Share

Download

Looking for another format? Having issues loading an existing format? Contact us
Advertisement - Login to hide

Notes

Basic altitude profile: - Ascent Rate: 2500ft/min - Ascent Speed: 250kts - Cruise Altitude: 1800ft - Cruise Speed: 420kts - Descent Rate: 1500ft/min - Descent Speed: 250kts Options: - Use NATs: yes - Use PACOTS: yes - Use low airways: yes - Use high airways: no

Route

LPPT LPCS

ID Type Via Altitude (ft/m) Position (lat/lon) Dist (leg/tot) Name
O LPPT APT - 0 / 0 38.77880 / -9.13519 - / 0 nm Lisbon Humberto Delgado
O LPCS APT - 0 / 0 38.72520 / -9.35526 10 / 10 nm CASCAIS

Altitude Profile

Advertisement - Login to hide

LPPT

Details ICAO LPPT (LIS)
Name Lisboa Humberto Delgado
Region Portugal
Timezone Europe/Lisbon (UTC+0.0)
Stats Elevation 374 ft / 114 m (AMSL)
Location 38.778800° -9.135190°
Runways 2
Magnetic Variation 1.592° W

METAR

LPPT 041330Z 31010KT 280V340 9999 FEW028 SCT035 16/08 Q1021

Decode

TAF

TAF LPPT 041100Z 0412/0518 30012KT 9999 SCT030 BECMG 0418/0421 32005KT BECMG 0508/0510 07005KT BECMG 0514/0516 35007KT

Decode

Departure Runways

ID Width Length Bearing (true/mag) Surface Threshold Overrun Markings Lighting
03 148 ft / 45 m 12,505 ft / 3,812 m 22.65° / 24.24° ASPHALT 302 ft / 92 m 0 ft / 0 m PREC-APP CENTERLINE EDGE THRESHOLD ALSF-II TDZ REIL-OMNI
17 148 ft / 45 m 7,612 ft / 2,320 m 168.14° / 169.73° ASPHALT 0 ft / 0 m 0 ft / 0 m PREC-APP CENTERLINE EDGE THRESHOLD REIL-OMNI
21 148 ft / 45 m 12,505 ft / 3,812 m 202.66° / 204.25° ASPHALT 1,965 ft / 599 m 0 ft / 0 m PREC-APP CENTERLINE EDGE THRESHOLD ALSF-II TDZ REIL-OMNI
35 148 ft / 45 m 7,612 ft / 2,320 m 348.14° / 349.73° ASPHALT 194 ft / 59 m 299 ft / 91 m PREC-APP CENTERLINE EDGE THRESHOLD ALSF-I REIL-OMNI

LPCS

Details ICAO LPCS (CAT)
Name Cascais
Region Portugal
Timezone Europe/Lisbon (UTC+0.0)
Stats Elevation 326 ft / 99 m (AMSL)
Location 38.725100° -9.355190°
Runways 1
Magnetic Variation 1.662° W

METAR

LPCS 041330Z 31012KT 280V340 9999 FEW022 SCT030 16/08 Q1022

Decode

TAF

Not found

Destination Runways

ID Width Length Bearing (true/mag) Surface Threshold Overrun Markings Lighting
17 97 ft / 30 m 5,519 ft / 1,682 m 164.13° / 165.79° CONCRETE 1,083 ft / 330 m 0 ft / 0 m APP EDGE THRESHOLD
35 97 ft / 30 m 5,519 ft / 1,682 m 344.13° / 345.80° CONCRETE 459 ft / 140 m 0 ft / 0 m APP EDGE THRESHOLD

Popular Alternatives